Time;durP1;ratioP1;P1;durP2;ratioP2;P2;SDS_P1;SDS_P2;PMS_P1;PMS_P2;Temp;Humidity;BMP_temperature;BMP_pressure;BME280_temperature;BME280_humidity;BME280_pressure;Samples;Min_cycle;Max_cycle;Signal;HPM_P1;HPM_P2
2023/05/31 00:00:12;;;;;;;;;;;10.10;99.90;;;;;;4912134;29;20015;-77
2023/05/31 00:02:37;;;;;;;;;;;10.10;99.90;;;;;;4912704;29;19931;-77
2023/05/31 00:05:03;;;;;;;;;;;10.10;99.90;;;;;;4917155;29;19927;-77
2023/05/31 00:07:28;;;;;;;;;;;10.10;99.90;;;;;;4920485;29;20009;-77
2023/05/31 00:09:54;;;;;;;;;;;10.00;99.90;;;;;;4898604;29;20023;-77
2023/05/31 00:12:19;;;;;;;;;;;10.10;99.90;;;;;;4893747;29;19931;-77
2023/05/31 00:14:46;;;;;;;;;;;10.10;99.90;;;;;;4895871;29;20080;-77
2023/05/31 00:17:11;;;;;;;;;;;10.00;99.90;;;;;;4900093;29;19947;-77
2023/05/31 00:19:37;;;;;;;;;;;10.20;99.90;;;;;;4901102;29;19931;-77
2023/05/31 00:22:02;;;;;;;;;;;10.00;99.90;;;;;;4900249;29;19933;-77
2023/05/31 00:24:28;;;;;;;;;;;9.90;99.90;;;;;;4881908;29;20023;-77
2023/05/31 00:26:53;;;;;;;;;;;10.00;99.90;;;;;;4899034;29;19974;-77
2023/05/31 00:29:19;;;;;;;;;;;10.10;99.90;;;;;;4882311;29;19927;-77
2023/05/31 00:31:44;;;;;;;;;;;9.90;99.90;;;;;;4897579;29;20412;-76
2023/05/31 00:34:11;;;;;;;;;;;9.90;99.90;;;;;;4899056;29;20279;-77
2023/05/31 00:36:37;;;;;;;;;;;9.90;99.90;;;;;;4881638;29;19982;-77
2023/05/31 00:39:03;;;;;;;;;;;9.80;99.90;;;;;;4898014;29;19966;-77
2023/05/31 00:41:28;;;;;;;;;;;9.80;99.90;;;;;;4894095;29;20003;-77
2023/05/31 00:43:54;;;;;;;;;;;9.80;99.90;;;;;;4893630;29;20001;-76
2023/05/31 00:46:25;;;;;;;;;;;9.70;99.90;;;;;;4876090;29;19952;-77
2023/05/31 00:48:51;;;;;;;;;;;9.70;99.90;;;;;;4898133;29;19927;-76
2023/05/31 00:51:16;;;;;;;;;;;9.80;99.90;;;;;;4887738;29;19947;-76
2023/05/31 00:53:44;;;;;;;;;;;9.70;99.90;;;;;;4895666;29;19927;-76
2023/05/31 00:56:09;;;;;;;;;;;9.70;99.90;;;;;;4897215;29;19928;-76
2023/05/31 00:58:36;;;;;;;;;;;9.60;99.90;;;;;;4895324;29;20310;-76
2023/05/31 01:01:02;;;;;;;;;;;9.60;99.90;;;;;;4893620;29;19987;-76
2023/05/31 01:03:28;;;;;;;;;;;9.60;99.90;;;;;;4896749;29;19935;-76
2023/05/31 01:05:55;;;;;;;;;;;9.60;99.90;;;;;;4895303;29;19931;-76
2023/05/31 01:08:21;;;;;;;;;;;9.50;99.90;;;;;;4902710;29;19957;-76
2023/05/31 01:10:47;;;;;;;;;;;9.50;99.90;;;;;;4916503;29;19934;-76
2023/05/31 01:13:12;;;;;;;;;;;9.50;99.90;;;;;;4899958;29;20334;-76
2023/05/31 01:15:44;;;;;;;;;;;9.50;99.90;;;;;;4915383;29;20392;-76
2023/05/31 01:18:34;;;;;;;;;;;9.40;99.90;;;;;;4914392;29;19927;-76
2023/05/31 01:21:01;;;;;;;;;;;9.40;99.90;;;;;;4907249;29;19971;-76
2023/05/31 01:23:39;;;;;;;;;;;9.50;99.90;;;;;;4908784;29;19927;-77
2023/05/31 01:26:13;;;;;;;;;;;9.40;99.90;;;;;;4888569;29;19927;-76
2023/05/31 01:28:39;;;;;;;;;;;9.40;99.90;;;;;;4914598;29;19931;-76
2023/05/31 01:31:07;;;;;;;;;;;9.30;99.90;;;;;;4911544;29;19927;-76
2023/05/31 01:33:34;;;;;;;;;;;9.40;99.90;;;;;;4917771;29;19934;-77
2023/05/31 01:35:59;;;;;;;;;;;9.30;99.90;;;;;;4901622;29;19927;-77
2023/05/31 01:38:25;;;;;;;;;;;9.30;99.90;;;;;;4903300;29;19934;-77
2023/05/31 01:40:51;;;;;;;;;;;9.20;99.90;;;;;;4916528;29;19937;-77
2023/05/31 01:43:17;;;;;;;;;;;9.20;99.90;;;;;;4919761;29;20378;-77
2023/05/31 01:45:43;;;;;;;;;;;9.20;99.90;;;;;;4897287;29;20378;-77
2023/05/31 01:48:10;;;;;;;;;;;9.20;99.90;;;;;;4920976;29;19979;-77
2023/05/31 01:50:36;;;;;;;;;;;9.20;99.90;;;;;;4919162;29;20456;-77
2023/05/31 01:53:01;;;;;;;;;;;9.30;99.90;;;;;;4920823;29;19927;-77
2023/05/31 01:55:27;;;;;;;;;;;9.20;99.90;;;;;;4918789;29;19954;-77
2023/05/31 01:57:54;;;;;;;;;;;9.20;99.90;;;;;;4916219;29;19928;-76
2023/05/31 02:00:21;;;;;;;;;;;9.20;99.90;;;;;;4915669;29;19934;-77
2023/05/31 02:02:46;;;;;;;;;;;9.20;99.90;;;;;;4911769;29;20059;-77
2023/05/31 02:05:12;;;;;;;;;;;9.20;99.90;;;;;;4917369;29;19974;-77
2023/05/31 02:07:39;;;;;;;;;;;9.20;99.90;;;;;;4918191;29;19927;-77
2023/05/31 02:10:05;;;;;;;;;;;9.20;99.90;;;;;;4894980;29;19938;-77
2023/05/31 02:12:30;;;;;;;;;;;9.20;99.90;;;;;;4889206;29;20005;-77
2023/05/31 02:14:56;;;;;;;;;;;9.20;99.90;;;;;;4897918;29;19931;-77
2023/05/31 02:17:24;;;;;;;;;;;9.20;99.90;;;;;;4879450;29;19976;-77
2023/05/31 02:19:50;;;;;;;;;;;9.20;99.90;;;;;;4897674;29;19935;-76
2023/05/31 02:22:16;;;;;;;;;;;9.20;99.90;;;;;;4898629;29;19983;-76
2023/05/31 02:24:41;;;;;;;;;;;9.20;99.90;;;;;;4898945;29;20014;-77
2023/05/31 02:27:07;;;;;;;;;;;9.10;99.90;;;;;;4896133;29;19928;-77
2023/05/31 02:29:32;;;;;;;;;;;9.10;99.90;;;;;;4891458;29;20011;-75
2023/05/31 02:31:58;;;;;;;;;;;9.10;99.90;;;;;;4897872;29;19938;-75
2023/05/31 02:34:23;;;;;;;;;;;9.10;99.90;;;;;;4898004;29;20044;-75
2023/05/31 02:36:49;;;;;;;;;;;9.10;99.90;;;;;;4880393;29;19931;-76
2023/05/31 02:39:15;;;;;;;;;;;9.50;99.90;;;;;;4888438;29;19928;-76
2023/05/31 02:41:40;;;;;;;;;;;9.10;99.90;;;;;;4895230;29;19927;-75
2023/05/31 02:44:06;;;;;;;;;;;9.10;99.90;;;;;;4904909;29;19927;-76
2023/05/31 02:46:31;;;;;;;;;;;9.10;99.90;;;;;;4896313;29;19971;-76
2023/05/31 02:48:57;;;;;;;;;;;9.00;99.90;;;;;;4899569;29;19935;-75
2023/05/31 02:51:22;;;;;;;;;;;9.10;99.90;;;;;;4888693;29;19928;-76
2023/05/31 02:53:48;;;;;;;;;;;9.00;99.90;;;;;;4900759;29;19935;-76
2023/05/31 02:56:13;;;;;;;;;;;9.00;99.90;;;;;;4898876;29;19935;-76
2023/05/31 02:58:39;;;;;;;;;;;9.00;99.90;;;;;;4903750;29;19933;-76
2023/05/31 03:01:04;;;;;;;;;;;9.00;99.90;;;;;;4887960;29;19935;-76
2023/05/31 03:03:30;;;;;;;;;;;9.00;99.90;;;;;;4906214;29;19928;-76
2023/05/31 03:05:55;;;;;;;;;;;9.00;99.90;;;;;;4896479;29;20409;-76
2023/05/31 03:08:21;;;;;;;;;;;9.10;99.90;;;;;;4903673;29;19942;-76
2023/05/31 03:10:46;;;;;;;;;;;9.00;99.90;;;;;;4917380;29;20453;-76
2023/05/31 03:13:12;;;;;;;;;;;9.00;99.90;;;;;;4908656;29;20780;-76
2023/05/31 03:15:37;;;;;;;;;;;9.00;99.90;;;;;;4907932;29;19927;-76
2023/05/31 03:18:03;;;;;;;;;;;9.00;99.90;;;;;;4915847;29;20037;-76
2023/05/31 03:20:30;;;;;;;;;;;9.00;99.90;;;;;;4916752;29;20018;-76
2023/05/31 03:22:56;;;;;;;;;;;9.20;99.90;;;;;;4887166;29;20010;-76
2023/05/31 03:25:21;;;;;;;;;;;9.10;99.90;;;;;;4916315;29;20408;-76
2023/05/31 03:27:47;;;;;;;;;;;9.10;99.90;;;;;;4900954;29;19931;-76
2023/05/31 03:30:12;;;;;;;;;;;9.10;99.90;;;;;;4918408;29;19949;-76
2023/05/31 03:32:38;;;;;;;;;;;9.10;99.90;;;;;;4918573;29;19937;-76
2023/05/31 03:35:04;;;;;;;;;;;9.10;99.90;;;;;;4901845;29;19927;-76
2023/05/31 03:37:30;;;;;;;;;;;9.10;99.90;;;;;;4900994;29;19935;-76
2023/05/31 03:39:55;;;;;;;;;;;9.60;99.90;;;;;;4918204;29;19927;-76
2023/05/31 03:42:21;;;;;;;;;;;9.20;99.90;;;;;;4918395;29;19994;-76
2023/05/31 03:44:46;;;;;;;;;;;9.50;99.90;;;;;;4920849;29;19927;-77
2023/05/31 03:47:12;;;;;;;;;;;9.30;99.90;;;;;;4919791;29;19938;-76
2023/05/31 03:49:40;;;;;;;;;;;9.40;99.90;;;;;;4902178;29;19927;-76
2023/05/31 03:52:08;;;;;;;;;;;9.40;99.90;;;;;;4894694;29;19927;-76
2023/05/31 03:54:34;;;;;;;;;;;9.40;99.90;;;;;;4915989;29;19931;-76
2023/05/31 03:57:00;;;;;;;;;;;9.40;99.90;;;;;;4907864;29;19927;-76
2023/05/31 03:59:25;;;;;;;;;;;9.40;99.90;;;;;;4917573;29;19931;-76
2023/05/31 04:01:51;;;;;;;;;;;9.40;99.90;;;;;;4917397;29;20301;-76
2023/05/31 04:04:17;;;;;;;;;;;9.50;99.90;;;;;;4890781;29;20390;-76
2023/05/31 04:06:42;;;;;;;;;;;9.20;99.90;;;;;;4914367;29;19934;-76
2023/05/31 04:09:08;;;;;;;;;;;9.50;99.90;;;;;;4904606;29;19935;-76
2023/05/31 04:11:33;;;;;;;;;;;9.60;99.90;;;;;;4916756;29;19928;-76
2023/05/31 04:13:59;;;;;;;;;;;9.60;99.90;;;;;;4893706;29;19927;-75
2023/05/31 04:16:25;;;;;;;;;;;9.60;99.90;;;;;;4910950;29;19976;-76
2023/05/31 04:18:51;;;;;;;;;;;9.70;99.90;;;;;;4911470;29;19934;-75
2023/05/31 04:21:16;;;;;;;;;;;9.70;99.90;;;;;;4918254;29;19934;-76
2023/05/31 04:23:42;;;;;;;;;;;9.80;99.90;;;;;;4915847;29;19934;-77
2023/05/31 04:26:08;;;;;;;;;;;9.80;99.90;;;;;;4913774;29;19927;-76
2023/05/31 04:28:34;;;;;;;;;;;9.90;99.90;;;;;;4916765;29;20396;-76
2023/05/31 04:31:00;;;;;;;;;;;10.00;99.90;;;;;;4915176;29;19928;-76
2023/05/31 04:33:29;;;;;;;;;;;10.00;99.90;;;;;;4910449;29;19951;-77
2023/05/31 04:35:56;;;;;;;;;;;10.10;99.90;;;;;;4921143;29;19926;-76
2023/05/31 04:38:27;;;;;;;;;;;10.10;99.90;;;;;;4880454;29;20389;-76
2023/05/31 04:40:54;;;;;;;;;;;10.10;99.90;;;;;;4914179;29;19931;-76
2023/05/31 04:43:19;;;;;;;;;;;10.20;99.90;;;;;;4915174;29;19927;-76
2023/05/31 04:45:47;;;;;;;;;;;10.20;99.90;;;;;;4915553;29;19927;-76
2023/05/31 04:48:15;;;;;;;;;;;10.40;99.90;;;;;;4916830;29;19927;-76
2023/05/31 04:50:40;;;;;;;;;;;10.40;99.90;;;;;;4916839;29;20030;-76
2023/05/31 04:53:06;;;;;;;;;;;10.50;99.90;;;;;;4910583;29;20425;-76
2023/05/31 04:55:31;;;;;;;;;;;10.60;99.90;;;;;;4897714;29;19927;-76
2023/05/31 04:57:57;;;;;;;;;;;10.70;99.90;;;;;;4914904;29;19981;-76
2023/05/31 05:00:22;;;;;;;;;;;10.80;99.90;;;;;;4897081;29;20026;-76
2023/05/31 05:02:48;;;;;;;;;;;10.90;99.90;;;;;;4883666;29;19950;-77
2023/05/31 05:05:16;;;;;;;;;;;11.00;99.90;;;;;;4903792;29;20400;-76
2023/05/31 05:07:41;;;;;;;;;;;11.20;99.90;;;;;;4896609;29;19934;-75
2023/05/31 05:10:07;;;;;;;;;;;11.30;99.90;;;;;;4877750;29;19924;-75
2023/05/31 05:12:32;;;;;;;;;;;11.40;99.90;;;;;;4902080;29;19956;-76
2023/05/31 05:14:58;;;;;;;;;;;11.50;99.90;;;;;;4902240;29;20006;-76
2023/05/31 05:17:23;;;;;;;;;;;11.60;99.90;;;;;;4896701;29;19934;-76
2023/05/31 05:19:49;;;;;;;;;;;11.70;99.90;;;;;;4891614;29;20085;-76
2023/05/31 05:22:14;;;;;;;;;;;11.80;99.90;;;;;;4865781;29;20306;-76
2023/05/31 05:24:40;;;;;;;;;;;12.00;99.90;;;;;;4894670;29;19935;-76
2023/05/31 05:27:06;;;;;;;;;;;12.10;99.90;;;;;;4901862;29;19927;-75
2023/05/31 05:29:31;;;;;;;;;;;12.20;99.90;;;;;;4881386;29;19970;-76
2023/05/31 05:31:57;;;;;;;;;;;12.30;99.90;;;;;;4901781;29;19950;-76
2023/05/31 05:34:22;;;;;;;;;;;12.40;99.90;;;;;;4897455;29;20289;-76
2023/05/31 05:36:48;;;;;;;;;;;12.50;99.90;;;;;;4896170;29;19942;-76
2023/05/31 05:39:13;;;;;;;;;;;12.60;99.90;;;;;;4894959;29;20010;-76
2023/05/31 05:41:39;;;;;;;;;;;12.60;99.90;;;;;;4865322;29;19931;-76
2023/05/31 05:44:05;;;;;;;;;;;12.70;99.90;;;;;;4898130;29;19999;-76
2023/05/31 05:46:30;;;;;;;;;;;12.90;99.90;;;;;;4881141;29;20271;-76
2023/05/31 05:48:56;;;;;;;;;;;13.20;99.90;;;;;;4898120;29;20081;-76
2023/05/31 05:51:22;;;;;;;;;;;13.30;99.90;;;;;;4895191;29;20635;-77
2023/05/31 05:53:47;;;;;;;;;;;13.50;99.90;;;;;;4900993;29;19928;-77
2023/05/31 05:56:17;;;;;;;;;;;13.90;99.90;;;;;;4900942;29;19927;-76
2023/05/31 05:58:43;;;;;;;;;;;14.20;99.90;;;;;;4900909;29;19991;-77
2023/05/31 06:01:12;;;;;;;;;;;14.50;99.90;;;;;;4894546;29;20386;-77
2023/05/31 06:03:38;;;;;;;;;;;14.70;99.90;;;;;;4874395;29;19959;-76
2023/05/31 06:06:03;;;;;;;;;;;15.00;99.90;;;;;;4899538;29;19927;-77
2023/05/31 06:08:29;;;;;;;;;;;15.10;99.90;;;;;;4889962;29;19927;-77
2023/05/31 06:10:54;;;;;;;;;;;15.30;99.90;;;;;;4918271;29;20000;-77
2023/05/31 06:13:20;;;;;;;;;;;15.30;99.90;;;;;;4918035;29;20026;-77
2023/05/31 06:15:45;;;;;;;;;;;15.50;99.90;;;;;;4895795;29;19974;-77
2023/05/31 06:18:11;;;;;;;;;;;15.40;99.90;;;;;;4896092;29;20301;-76
2023/05/31 06:20:37;;;;;;;;;;;15.20;99.90;;;;;;4910949;29;19966;-77
2023/05/31 06:23:02;;;;;;;;;;;15.20;99.90;;;;;;4914321;29;19934;-78
2023/05/31 06:25:28;;;;;;;;;;;15.10;99.90;;;;;;4912344;29;19931;-77
2023/05/31 06:27:56;;;;;;;;;;;15.10;99.90;;;;;;4911634;29;19933;-77
2023/05/31 06:30:22;;;;;;;;;;;15.00;99.90;;;;;;4898992;29;20034;-77
2023/05/31 06:32:48;;;;;;;;;;;15.00;99.90;;;;;;4913753;29;20017;-78
2023/05/31 06:35:13;;;;;;;;;;;15.00;99.90;;;;;;4917200;29;19927;-77
2023/05/31 06:37:39;;;;;;;;;;;15.10;99.90;;;;;;4913282;29;20385;-77
2023/05/31 06:40:06;;;;;;;;;;;15.30;99.90;;;;;;4918830;29;20421;-77
2023/05/31 06:42:32;;;;;;;;;;;15.40;99.90;;;;;;4909413;29;20382;-77
2023/05/31 06:44:57;;;;;;;;;;;15.40;99.90;;;;;;4914118;29;19927;-77
2023/05/31 06:47:23;;;;;;;;;;;15.50;99.90;;;;;;4920194;29;19927;-78
2023/05/31 06:49:49;;;;;;;;;;;15.50;99.90;;;;;;4919457;29;19937;-76
2023/05/31 06:52:14;;;;;;;;;;;15.50;99.90;;;;;;4918518;29;19927;-76
2023/05/31 06:54:40;;;;;;;;;;;15.50;99.90;;;;;;4916064;29;19934;-78
2023/05/31 06:57:05;;;;;;;;;;;15.70;99.90;;;;;;4914513;29;19928;-77
2023/05/31 06:59:31;;;;;;;;;;;15.60;99.90;;;;;;4886701;29;20413;-77
2023/05/31 07:01:57;;;;;;;;;;;15.60;99.90;;;;;;4916557;29;19934;-77
2023/05/31 07:04:22;;;;;;;;;;;15.70;99.90;;;;;;4900663;29;19928;-77
2023/05/31 07:06:49;;;;;;;;;;;15.90;99.90;;;;;;4909390;29;19931;-77
2023/05/31 07:09:15;;;;;;;;;;;15.90;99.90;;;;;;4826136;29;1847096;-76
2023/05/31 07:11:40;;;;;;;;;;;16.00;99.90;;;;;;4898434;29;19928;-77
2023/05/31 07:14:06;;;;;;;;;;;16.10;99.90;;;;;;4899057;29;20018;-77
2023/05/31 07:16:31;;;;;;;;;;;16.10;99.90;;;;;;4887318;29;20290;-76
2023/05/31 07:18:57;;;;;;;;;;;16.20;99.90;;;;;;4889955;29;19983;-77
2023/05/31 07:21:22;;;;;;;;;;;16.30;99.90;;;;;;4895824;29;19928;-76
2023/05/31 07:23:48;;;;;;;;;;;16.40;99.90;;;;;;4908791;29;19927;-76
2023/05/31 07:26:17;;;;;;;;;;;16.50;99.90;;;;;;4893925;29;20399;-77
2023/05/31 07:28:42;;;;;;;;;;;16.70;99.90;;;;;;4901658;29;20014;-77
2023/05/31 07:31:08;;;;;;;;;;;16.70;99.90;;;;;;4900631;29;19974;-76
2023/05/31 07:33:34;;;;;;;;;;;16.70;99.90;;;;;;4882780;29;19955;-76
2023/05/31 07:36:00;;;;;;;;;;;16.80;99.90;;;;;;4886395;29;20283;-76
2023/05/31 07:38:25;;;;;;;;;;;17.00;99.90;;;;;;4870259;29;19934;-77
2023/05/31 07:40:51;;;;;;;;;;;17.00;99.90;;;;;;4896388;29;20029;-76
2023/05/31 07:43:20;;;;;;;;;;;17.00;99.90;;;;;;4897370;29;19927;-77
2023/05/31 07:45:47;;;;;;;;;;;17.20;99.90;;;;;;4879486;29;19927;-78
2023/05/31 07:48:12;;;;;;;;;;;17.30;99.90;;;;;;4884262;29;20063;-78
2023/05/31 07:50:38;;;;;;;;;;;17.40;99.90;;;;;;4885435;29;19963;-78
2023/05/31 07:53:03;;;;;;;;;;;17.50;99.90;;;;;;4882139;29;20003;-76
2023/05/31 07:55:29;;;;;;;;;;;17.30;99.90;;;;;;4902371;29;20416;-77
2023/05/31 07:57:54;;;;;;;;;;;17.40;99.90;;;;;;4900620;29;20446;-77
2023/05/31 08:00:20;;;;;;;;;;;17.50;99.90;;;;;;4883019;29;20010;-77
2023/05/31 08:02:46;;;;;;;;;;;17.50;99.90;;;;;;4895599;29;19931;-77
2023/05/31 08:05:12;;;;;;;;;;;17.50;99.90;;;;;;4866498;29;19928;-77
2023/05/31 08:07:38;;;;;;;;;;;17.60;99.90;;;;;;4896630;29;19928;-78
2023/05/31 08:10:03;;;;;;;;;;;17.60;99.90;;;;;;4904073;29;19933;-77
2023/05/31 08:12:29;;;;;;;;;;;17.70;99.90;;;;;;4923902;29;19986;-77
2023/05/31 08:14:54;;;;;;;;;;;17.70;99.90;;;;;;4904393;29;19927;-76
2023/05/31 08:17:20;;;;;;;;;;;17.60;99.90;;;;;;4918397;29;19931;-76
2023/05/31 08:19:46;;;;;;;;;;;17.80;99.90;;;;;;4917293;29;19927;-77
2023/05/31 08:22:11;;;;;;;;;;;17.90;99.90;;;;;;4914058;29;19959;-77
2023/05/31 08:24:37;;;;;;;;;;;17.90;99.90;;;;;;4919627;29;20297;-78
2023/05/31 08:27:02;;;;;;;;;;;17.80;99.90;;;;;;4901359;29;19927;-78
2023/05/31 08:29:28;;;;;;;;;;;17.70;99.90;;;;;;4886112;29;19934;-77
2023/05/31 08:31:53;;;;;;;;;;;17.80;99.90;;;;;;4896244;29;19950;-77
2023/05/31 08:34:19;;;;;;;;;;;17.90;99.90;;;;;;4915362;29;19928;-78
2023/05/31 08:36:44;;;;;;;;;;;18.00;99.90;;;;;;4904603;29;20026;-78
2023/05/31 08:39:10;;;;;;;;;;;18.00;99.90;;;;;;4918250;29;19978;-77
2023/05/31 08:42:02;;;;;;;;;;;18.00;99.90;;;;;;4913982;29;19927;-77
2023/05/31 08:44:28;;;;;;;;;;;18.10;99.90;;;;;;4897906;29;20014;-77
2023/05/31 08:46:57;;;;;;;;;;;18.20;99.90;;;;;;4896187;29;20072;-77
2023/05/31 08:49:23;;;;;;;;;;;18.40;99.90;;;;;;4917887;29;20417;-77
2023/05/31 08:51:48;;;;;;;;;;;18.40;99.90;;;;;;4918306;29;19972;-77
2023/05/31 08:54:14;;;;;;;;;;;18.50;99.90;;;;;;4917740;29;19934;-78
2023/05/31 08:56:40;;;;;;;;;;;18.60;99.90;;;;;;4899901;29;19990;-76
2023/05/31 08:59:10;;;;;;;;;;;18.60;99.90;;;;;;4917745;29;19931;-77
2023/05/31 09:01:36;;;;;;;;;;;18.70;99.90;;;;;;4917212;29;19927;-76
2023/05/31 09:04:03;;;;;;;;;;;18.80;99.90;;;;;;4917573;29;19982;-76
2023/05/31 09:06:29;;;;;;;;;;;18.70;99.90;;;;;;4908815;29;19978;-77
2023/05/31 09:08:55;;;;;;;;;;;18.70;99.90;;;;;;4901446;29;20395;-77
2023/05/31 09:11:22;;;;;;;;;;;18.80;99.90;;;;;;4918333;29;19927;-76
2023/05/31 09:13:47;;;;;;;;;;;18.80;99.90;;;;;;4905194;29;19943;-77
2023/05/31 09:16:13;;;;;;;;;;;18.70;99.90;;;;;;4900159;29;20034;-75
2023/05/31 09:18:39;;;;;;;;;;;18.70;99.90;;;;;;4917455;29;19971;-75
2023/05/31 09:21:12;;;;;;;;;;;18.60;99.90;;;;;;4900483;29;19928;-76
2023/05/31 09:23:37;;;;;;;;;;;18.50;99.90;;;;;;4901482;29;19955;-76
2023/05/31 09:26:07;;;;;;;;;;;18.60;99.90;;;;;;4917829;29;19935;-76
2023/05/31 09:28:33;;;;;;;;;;;18.60;99.90;;;;;;4923030;29;20373;-77
2023/05/31 09:31:03;;;;;;;;;;;18.50;99.90;;;;;;4908814;29;19931;-77
2023/05/31 09:33:55;;;;;;;;;;;18.20;99.90;;;;;;4922361;29;20030;-77
2023/05/31 09:36:25;;;;;;;;;;;18.00;99.90;;;;;;4892512;29;19927;-77
2023/05/31 09:38:51;;;;;;;;;;;17.70;99.90;;;;;;4902510;29;20289;-76
2023/05/31 09:41:20;;;;;;;;;;;17.60;99.90;;;;;;4920657;29;19934;-76
2023/05/31 09:43:48;;;;;;;;;;;17.70;99.90;;;;;;4903148;29;20023;-76
2023/05/31 09:46:14;;;;;;;;;;;17.80;99.90;;;;;;4906282;29;20430;-77
2023/05/31 09:48:40;;;;;;;;;;;17.70;99.90;;;;;;4885778;29;20394;-77
2023/05/31 09:51:10;;;;;;;;;;;17.60;99.90;;;;;;4890646;29;20391;-76
2023/05/31 09:53:43;;;;;;;;;;;17.60;99.90;;;;;;4899208;29;20326;-76
2023/05/31 09:56:16;;;;;;;;;;;17.60;99.90;;;;;;4918816;29;20397;-76
2023/05/31 09:58:42;;;;;;;;;;;17.60;99.90;;;;;;4919328;29;19935;-75
2023/05/31 10:01:08;;;;;;;;;;;17.50;99.90;;;;;;4917099;29;20405;-76
2023/05/31 10:03:34;;;;;;;;;;;17.60;99.90;;;;;;4922884;29;19974;-76
2023/05/31 10:06:00;;;;;;;;;;;17.70;99.90;;;;;;4924061;29;20298;-76
2023/05/31 10:08:26;;;;;;;;;;;17.80;99.90;;;;;;4915997;29;19970;-77
2023/05/31 10:10:53;;;;;;;;;;;18.00;99.90;;;;;;4909091;29;19934;-77
2023/05/31 10:13:19;;;;;;;;;;;18.10;99.90;;;;;;4920557;29;19982;-76
2023/05/31 10:15:48;;;;;;;;;;;18.20;99.90;;;;;;4905481;29;19928;-77
2023/05/31 10:18:15;;;;;;;;;;;18.20;99.90;;;;;;4918322;29;20002;-75
2023/05/31 10:20:48;;;;;;;;;;;18.10;99.90;;;;;;4902836;29;20342;-75
2023/05/31 10:23:23;;;;;;;;;;;18.00;99.90;;;;;;4919935;29;20084;-76
2023/05/31 10:25:49;;;;;;;;;;;18.00;99.90;;;;;;4919772;29;19961;-76
2023/05/31 10:28:17;;;;;;;;;;;18.00;99.90;;;;;;4885976;29;20416;-76
2023/05/31 10:30:43;;;;;;;;;;;18.20;99.90;;;;;;4915321;29;20074;-76
2023/05/31 10:33:11;;;;;;;;;;;18.40;99.90;;;;;;4915975;29;20033;-75
2023/05/31 10:35:37;;;;;;;;;;;18.50;99.90;;;;;;4875905;29;19927;-76
2023/05/31 10:38:03;;;;;;;;;;;18.50;99.90;;;;;;4889311;29;20417;-77
2023/05/31 10:40:29;;;;;;;;;;;18.70;99.90;;;;;;4911887;29;19998;-76
2023/05/31 10:42:56;;;;;;;;;;;18.70;99.90;;;;;;4916971;29;19927;-77
2023/05/31 10:45:25;;;;;;;;;;;18.80;99.90;;;;;;4887110;29;19927;-77
2023/05/31 10:48:00;;;;;;;;;;;18.90;99.90;;;;;;4888843;29;19927;-76
2023/05/31 10:50:26;;;;;;;;;;;19.00;99.90;;;;;;4905935;29;20401;-77
2023/05/31 10:52:51;;;;;;;;;;;19.10;99.90;;;;;;4913240;29;19927;-76
2023/05/31 10:55:18;;;;;;;;;;;19.10;99.90;;;;;;4900632;29;19948;-76
2023/05/31 10:57:44;;;;;;;;;;;19.30;99.90;;;;;;4908120;29;19934;-77
2023/05/31 11:00:13;;;;;;;;;;;19.50;99.90;;;;;;4914622;29;19935;-77
2023/05/31 11:02:46;;;;;;;;;;;19.50;99.90;;;;;;4911735;29;19938;-77
2023/05/31 11:05:19;;;;;;;;;;;19.30;99.90;;;;;;4918401;29;19934;-77
2023/05/31 11:07:44;;;;;;;;;;;19.20;99.90;;;;;;4914701;29;19933;-77
2023/05/31 11:10:23;;;;;;;;;;;19.10;99.90;;;;;;4887558;29;20429;-76
2023/05/31 11:12:48;;;;;;;;;;;19.20;99.90;;;;;;4919971;29;20426;-76
2023/05/31 11:15:14;;;;;;;;;;;19.30;99.90;;;;;;4916250;29;19927;-75
2023/05/31 11:17:49;;;;;;;;;;;19.40;99.90;;;;;;4905753;29;19934;-76
2023/05/31 11:20:16;;;;;;;;;;;19.40;99.90;;;;;;4910606;29;20286;-77
2023/05/31 11:22:42;;;;;;;;;;;19.50;99.90;;;;;;4900271;29;19931;-76
2023/05/31 11:25:09;;;;;;;;;;;19.50;99.90;;;;;;4892996;29;19927;-76
2023/05/31 11:27:39;;;;;;;;;;;19.40;99.90;;;;;;4902696;29;19934;-76
2023/05/31 11:30:08;;;;;;;;;;;19.50;99.90;;;;;;4918479;29;19927;-76
2023/05/31 11:32:34;;;;;;;;;;;19.40;99.90;;;;;;4918720;29;19974;-76
2023/05/31 11:35:03;;;;;;;;;;;19.40;99.90;;;;;;4906198;29;19932;-77
2023/05/31 11:37:30;;;;;;;;;;;19.40;99.90;;;;;;4916624;29;19990;-76
2023/05/31 11:39:59;;;;;;;;;;;19.50;99.90;;;;;;4914930;29;19927;-76
2023/05/31 11:42:25;;;;;;;;;;;19.50;99.90;;;;;;4899031;29;19928;-77
2023/05/31 11:44:52;;;;;;;;;;;19.60;99.90;;;;;;4894100;29;19934;-77
2023/05/31 11:47:18;;;;;;;;;;;19.90;99.90;;;;;;4901190;29;19949;-77
2023/05/31 11:49:44;;;;;;;;;;;19.80;99.90;;;;;;4911415;29;19935;-76
2023/05/31 11:52:13;;;;;;;;;;;19.90;99.90;;;;;;4902058;29;20911;-76
2023/05/31 11:54:43;;;;;;;;;;;19.90;99.90;;;;;;4917130;29;20385;-76
2023/05/31 11:57:08;;;;;;;;;;;20.00;99.90;;;;;;4908249;29;20026;-77
2023/05/31 11:59:35;;;;;;;;;;;19.90;99.90;;;;;;4916996;29;20047;-77
2023/05/31 12:02:02;;;;;;;;;;;19.90;99.90;;;;;;4915744;29;19951;-77
2023/05/31 12:04:38;;;;;;;;;;;19.80;99.90;;;;;;4930561;29;19927;-78
2023/05/31 12:07:09;;;;;;;;;;;19.60;99.90;;;;;;4934006;29;20326;-78
2023/05/31 12:09:35;;;;;;;;;;;19.30;99.90;;;;;;4910173;29;19935;-77
2023/05/31 12:12:08;;;;;;;;;;;19.20;99.90;;;;;;4913965;29;20266;-78
2023/05/31 12:14:34;;;;;;;;;;;19.20;99.90;;;;;;4906596;29;19983;-77
2023/05/31 12:17:05;;;;;;;;;;;19.10;99.90;;;;;;4916991;29;20407;-76
2023/05/31 12:19:31;;;;;;;;;;;18.90;99.90;;;;;;4898426;29;20474;-76
2023/05/31 12:21:57;;;;;;;;;;;19.10;99.90;;;;;;4898534;29;20005;-76
2023/05/31 12:24:23;;;;;;;;;;;19.30;99.90;;;;;;4900839;29;19979;-77
2023/05/31 12:26:48;;;;;;;;;;;19.60;99.90;;;;;;4901120;29;20305;-77
2023/05/31 12:29:15;;;;;;;;;;;19.70;99.90;;;;;;4918581;29;19923;-78
2023/05/31 12:31:41;;;;;;;;;;;19.70;99.90;;;;;;4918231;29;19927;-77
2023/05/31 12:34:06;;;;;;;;;;;19.40;99.90;;;;;;4918202;29;19927;-77
2023/05/31 12:36:45;;;;;;;;;;;19.40;99.90;;;;;;4919445;29;19955;-77
2023/05/31 12:39:18;;;;;;;;;;;19.40;99.90;;;;;;4914809;29;19947;-77
2023/05/31 12:41:44;;;;;;;;;;;19.20;99.90;;;;;;4913540;29;19979;-77
2023/05/31 12:44:11;;;;;;;;;;;19.10;99.90;;;;;;4919353;29;19927;-77
2023/05/31 12:46:37;;;;;;;;;;;19.20;99.90;;;;;;4917536;29;19967;-76
2023/05/31 12:49:22;;;;;;;;;;;19.40;99.90;;;;;;4915643;29;20382;-77
2023/05/31 12:52:08;;;;;;;;;;;19.40;99.90;;;;;;4911693;29;19934;-77
2023/05/31 12:54:35;;;;;;;;;;;19.50;99.90;;;;;;4896085;29;20401;-76
2023/05/31 12:57:02;;;;;;;;;;;19.30;99.90;;;;;;4914544;29;19927;-77
2023/05/31 12:59:30;;;;;;;;;;;19.40;99.90;;;;;;4909913;29;19987;-77
2023/05/31 13:01:56;;;;;;;;;;;19.30;99.90;;;;;;4894398;29;19966;-76
2023/05/31 13:04:22;;;;;;;;;;;19.20;99.90;;;;;;4913410;29;19933;-77
2023/05/31 13:06:48;;;;;;;;;;;19.10;99.90;;;;;;4915770;29;20396;-76
2023/05/31 13:09:14;;;;;;;;;;;19.10;99.90;;;;;;4899059;29;19931;-77
2023/05/31 13:11:40;;;;;;;;;;;19.10;99.90;;;;;;4900160;29;19954;-78
2023/05/31 13:14:08;;;;;;;;;;;19.00;99.90;;;;;;4896480;29;20360;-76
2023/05/31 13:16:34;;;;;;;;;;;19.00;99.90;;;;;;4898192;29;19927;-77
2023/05/31 13:19:00;;;;;;;;;;;19.00;99.90;;;;;;4912036;29;20018;-77
2023/05/31 13:21:26;;;;;;;;;;;19.00;99.90;;;;;;4912602;29;20338;-77
2023/05/31 13:23:52;;;;;;;;;;;19.00;99.90;;;;;;4894575;29;20400;-77
2023/05/31 13:26:18;;;;;;;;;;;19.10;99.90;;;;;;4912889;29;19931;-77
2023/05/31 13:28:43;;;;;;;;;;;19.10;99.90;;;;;;4912569;29;20416;-77
2023/05/31 13:31:09;;;;;;;;;;;18.90;99.90;;;;;;4920269;29;19931;-76
2023/05/31 13:33:34;;;;;;;;;;;19.30;99.90;;;;;;4896981;29;19930;-77
2023/05/31 13:36:00;;;;;;;;;;;19.30;99.90;;;;;;4892924;29;19935;-77
2023/05/31 13:38:26;;;;;;;;;;;19.40;99.90;;;;;;4895591;29;19927;-76
2023/05/31 13:40:51;;;;;;;;;;;19.40;99.90;;;;;;4905467;29;19976;-76
2023/05/31 13:43:17;;;;;;;;;;;19.40;99.90;;;;;;4917843;29;19933;-76
2023/05/31 13:45:43;;;;;;;;;;;19.50;99.90;;;;;;4917291;29;19935;-76
2023/05/31 13:48:09;;;;;;;;;;;19.60;99.90;;;;;;4918155;29;19931;-76
2023/05/31 13:50:35;;;;;;;;;;;19.90;99.90;;;;;;4921428;29;19935;-76
2023/05/31 13:53:00;;;;;;;;;;;20.00;99.90;;;;;;4922216;29;19955;-77
2023/05/31 13:55:26;;;;;;;;;;;20.00;99.90;;;;;;4917320;29;19931;-77
2023/05/31 13:57:51;;;;;;;;;;;20.00;99.90;;;;;;4919686;29;20282;-76
2023/05/31 14:00:17;;;;;;;;;;;19.90;99.90;;;;;;4913586;29;19935;-76
2023/05/31 14:02:43;;;;;;;;;;;19.80;99.90;;;;;;4921665;29;19927;-76
2023/05/31 14:05:09;;;;;;;;;;;19.80;99.90;;;;;;4900669;29;19931;-77
2023/05/31 14:07:35;;;;;;;;;;;19.80;99.90;;;;;;4899357;29;19931;-77
2023/05/31 14:10:03;;;;;;;;;;;19.90;99.90;;;;;;4919817;29;19927;-76
2023/05/31 14:12:29;;;;;;;;;;;20.00;99.90;;;;;;4918643;29;19974;-77
2023/05/31 14:14:55;;;;;;;;;;;20.20;99.90;;;;;;4914049;29;19927;-77
2023/05/31 14:17:20;;;;;;;;;;;20.40;99.90;;;;;;4918941;29;20342;-77